Time;durP1;ratioP1;P1;durP2;ratioP2;P2;SDS_P1;SDS_P2;PMS_P1;PMS_P2;Temp;Humidity;BMP_temperature;BMP_pressure;BME280_temperature;BME280_humidity;BME280_pressure;Samples;Min_cycle;Max_cycle;Signal;HPM_P1;HPM_P2
2023/04/23 00:00:44;;;;;;;;;;;;;;;16.64;100.00;98453.72;5046396;28;19921;-39
2023/04/23 00:03:11;;;;;;;;;;;;;;;16.40;100.00;98494.28;5039482;28;19928;-39
2023/04/23 00:05:37;;;;;;;;;;;;;;;15.98;100.00;98537.63;5025141;28;19927;-39
2023/04/23 00:08:02;;;;;;;;;;;;;;;15.52;100.00;98610.44;5038908;28;19920;-39
2023/04/23 00:10:28;;;;;;;;;;;;;;;14.77;100.00;98672.59;5041577;28;19921;-39
2023/04/23 00:12:53;;;;;;;;;;;;;;;14.49;100.00;98771.66;5020217;28;19928;-39
2023/04/23 00:15:20;;;;;;;;;;;;;;;14.69;100.00;98863.94;5039143;28;19923;-39
2023/04/23 00:17:46;;;;;;;;;;;;;;;14.33;100.00;98933.06;5041516;28;19921;-39
2023/04/23 00:20:11;;;;;;;;;;;;;;;15.01;100.00;99023.94;5038095;28;19931;-39
2023/04/23 00:22:36;;;;;;;;;;;;;;;15.16;100.00;99074.19;5038881;28;19957;-39
2023/04/23 00:25:02;;;;;;;;;;;;;;;14.67;100.00;99058.44;5038602;28;19920;-39
2023/04/23 00:27:27;;;;;;;;;;;;;;;14.38;100.00;99086.53;5038419;28;19923;-39
2023/04/23 00:29:52;;;;;;;;;;;;;;;14.52;100.00;99140.31;5037911;28;19921;-39
2023/04/23 00:32:17;;;;;;;;;;;;;;;14.38;100.00;99160.84;5038339;28;19921;-39
2023/04/23 00:34:43;;;;;;;;;;;;;;;14.62;100.00;99198.63;5043080;28;20019;-39
2023/04/23 00:37:08;;;;;;;;;;;;;;;14.81;100.00;99227.16;5046333;28;20012;-39
2023/04/23 00:39:34;;;;;;;;;;;;;;;14.81;100.00;99229.75;5038791;28;20012;-39
2023/04/23 00:42:05;;;;;;;;;;;;;;;14.76;100.00;99220.50;5036084;28;20019;-39
2023/04/23 00:44:31;;;;;;;;;;;;;;;14.59;100.00;99201.34;5019432;28;19963;-39
2023/04/23 00:46:56;;;;;;;;;;;;;;;14.45;100.00;99170.00;5037451;28;20401;-39
2023/04/23 00:49:21;;;;;;;;;;;;;;;15.17;100.00;99197.81;5020083;28;20388;-39
2023/04/23 00:51:47;;;;;;;;;;;;;;;14.97;100.00;99146.88;5024794;28;20406;-39
2023/04/23 00:54:13;;;;;;;;;;;;;;;14.74;100.00;99109.09;5038530;28;19920;-39
2023/04/23 00:56:38;;;;;;;;;;;;;;;15.31;100.00;99137.47;5034373;28;20074;-39
2023/04/23 00:59:03;;;;;;;;;;;;;;;14.97;100.00;99095.00;5037654;28;20003;-39
2023/04/23 01:01:29;;;;;;;;;;;;;;;15.23;100.00;99082.50;5037597;28;20050;-39
2023/04/23 01:03:55;;;;;;;;;;;;;;;14.78;100.00;99063.09;5020411;28;19920;-39
2023/04/23 01:06:20;;;;;;;;;;;;;;;15.06;100.00;99076.41;5037618;28;20028;-39
2023/04/23 01:08:45;;;;;;;;;;;;;;;15.00;100.00;99086.25;5020457;28;19917;-39
2023/04/23 01:11:15;;;;;;;;;;;;;;;15.03;100.00;99079.16;5036740;28;19996;-39
2023/04/23 01:13:41;;;;;;;;;;;;;;;14.60;100.00;99081.22;5037695;28;19924;-39
2023/04/23 01:16:07;;;;;;;;;;;;;;;15.38;100.00;99114.66;5037744;28;19921;-39
2023/04/23 01:18:33;;;;;;;;;;;;;;;16.02;100.00;99064.63;5024473;28;19916;-40
2023/04/23 01:20:58;;;;;;;;;;;;;;;16.79;100.00;98990.25;5047071;28;19916;-40
2023/04/23 01:23:23;;;;;;;;;;;;;;;16.24;100.00;98845.22;5036083;28;19920;-39
2023/04/23 01:25:48;;;;;;;;;;;;;;;16.61;100.00;98781.50;5036243;28;19921;-39
2023/04/23 01:28:14;;;;;;;;;;;;;;;16.30;100.00;98642.97;5018573;28;19967;-39
2023/04/23 01:30:41;;;;;;;;;;;;;;;15.61;100.00;98612.50;5036131;28;19958;-39
2023/04/23 01:33:06;;;;;;;;;;;;;;;15.43;100.00;98615.25;5041243;28;19998;-39
2023/04/23 01:35:31;;;;;;;;;;;;;;;16.53;100.00;98622.53;5021980;28;19920;-39
2023/04/23 01:37:56;;;;;;;;;;;;;;;16.07;100.00;98543.06;5017398;28;20298;-39
2023/04/23 01:40:22;;;;;;;;;;;;;;;15.60;100.00;98564.97;5037214;28;19975;-39
2023/04/23 01:42:47;;;;;;;;;;;;;;;15.09;100.00;98566.25;5039580;28;19948;-39
2023/04/23 01:45:12;;;;;;;;;;;;;;;15.31;100.00;98631.53;5036399;28;19921;-39
2023/04/23 01:47:38;;;;;;;;;;;;;;;15.14;100.00;98639.41;5043183;28;19927;-39
2023/04/23 01:50:04;;;;;;;;;;;;;;;15.64;100.00;98635.69;5017922;28;19921;-39
2023/04/23 01:52:29;;;;;;;;;;;;;;;16.25;100.00;98592.25;5035015;28;19921;-39
2023/04/23 01:54:54;;;;;;;;;;;;;;;16.36;100.00;98553.44;5040938;28;20339;-39
2023/04/23 01:57:23;;;;;;;;;;;;;;;16.44;100.00;98475.78;5035096;28;19921;-39
2023/04/23 01:59:48;;;;;;;;;;;;;;;17.00;100.00;98417.59;5038049;28;19931;-39
2023/04/23 02:02:14;;;;;;;;;;;;;;;16.15;100.00;98350.38;5036062;28;19924;-39
2023/04/23 02:04:39;;;;;;;;;;;;;;;16.03;100.00;98354.63;5039182;28;19928;-39
2023/04/23 02:07:04;;;;;;;;;;;;;;;17.11;100.00;98343.06;5018205;28;19947;-39
2023/04/23 02:09:30;;;;;;;;;;;;;;;16.83;100.00;98252.28;5034643;28;19927;-39
2023/04/23 02:11:56;;;;;;;;;;;;;;;16.73;100.00;98213.88;5034961;28;19935;-39
2023/04/23 02:14:21;;;;;;;;;;;;;;;16.11;100.00;98221.63;5036528;28;20020;-39
2023/04/23 02:16:47;;;;;;;;;;;;;;;16.32;100.00;98240.13;5035786;28;20325;-39
2023/04/23 02:19:12;;;;;;;;;;;;;;;16.24;100.00;98253.66;5035042;28;20431;-39
2023/04/23 02:21:37;;;;;;;;;;;;;;;16.29;100.00;98254.16;5035551;28;20603;-39
2023/04/23 02:24:04;;;;;;;;;;;;;;;16.77;100.00;98243.13;5039285;28;19920;-39
2023/04/23 02:26:29;;;;;;;;;;;;;;;16.23;100.00;98220.78;5035328;28;19921;-39
2023/04/23 02:28:54;;;;;;;;;;;;;;;16.13;100.00;98224.97;5036207;28;20285;-39
2023/04/23 02:31:20;;;;;;;;;;;;;;;16.41;100.00;98230.88;5035146;28;19951;-39
2023/04/23 02:33:45;;;;;;;;;;;;;;;16.70;100.00;98234.09;5019203;28;19944;-39
2023/04/23 02:36:11;;;;;;;;;;;;;;;16.29;100.00;98210.00;5035216;28;19917;-39
2023/04/23 02:38:36;;;;;;;;;;;;;;;16.13;100.00;98216.34;5035078;28;19924;-39
2023/04/23 02:41:01;;;;;;;;;;;;;;;16.06;100.00;98234.94;5034885;28;19927;-39
2023/04/23 02:43:26;;;;;;;;;;;;;;;17.05;100.00;98228.22;5035392;28;20074;-39
2023/04/23 02:45:52;;;;;;;;;;;;;;;17.83;100.00;98147.03;5035043;28;20011;-39
2023/04/23 02:48:17;;;;;;;;;;;;;;;17.50;100.00;98088.72;5034546;28;20004;-39
2023/04/23 02:50:42;;;;;;;;;;;;;;;16.29;100.00;98120.84;5034743;28;20019;-39
2023/04/23 02:53:08;;;;;;;;;;;;;;;17.12;100.00;98120.97;5035199;28;20023;-39
2023/04/23 02:55:33;;;;;;;;;;;;;;;17.64;100.00;98094.66;5034760;28;19956;-39
2023/04/23 02:57:58;;;;;;;;;;;;;;;17.64;100.00;98086.84;5034757;28;19920;-39
2023/04/23 03:00:24;;;;;;;;;;;;;;;18.00;100.00;98069.38;5033939;28;20219;-39
2023/04/23 03:02:49;;;;;;;;;;;;;;;18.71;100.00;98035.97;5036056;28;20350;-39
2023/04/23 03:05:15;;;;;;;;;;;;;;;18.31;100.00;98026.91;5017654;28;19917;-39
2023/04/23 03:07:40;;;;;;;;;;;;;;;16.58;100.00;98059.00;5035290;28;20601;-39
2023/04/23 03:10:05;;;;;;;;;;;;;;;16.19;100.00;98104.22;5035199;28;19990;-39
2023/04/23 03:12:31;;;;;;;;;;;;;;;17.20;100.00;98101.41;5034569;28;19924;-39
2023/04/23 03:14:56;;;;;;;;;;;;;;;17.21;100.00;98077.84;5039394;28;20016;-39
2023/04/23 03:17:21;;;;;;;;;;;;;;;17.86;100.00;98058.25;5035455;28;20495;-39
2023/04/23 03:19:47;;;;;;;;;;;;;;;18.41;100.00;98018.41;5035000;28;19928;-39
2023/04/23 03:22:12;;;;;;;;;;;;;;;18.66;100.00;98005.03;5037992;28;20565;-39
2023/04/23 03:24:38;;;;;;;;;;;;;;;18.68;100.00;97997.91;5038838;28;19945;-40
2023/04/23 03:27:03;;;;;;;;;;;;;;;18.48;100.00;97996.09;5038302;28;19976;-39
2023/04/23 03:29:28;;;;;;;;;;;;;;;18.67;100.00;97990.22;5037695;28;19971;-39
2023/04/23 03:31:53;;;;;;;;;;;;;;;18.76;100.00;97987.69;5038541;28;19928;-39
2023/04/23 03:34:18;;;;;;;;;;;;;;;18.71;100.00;97989.00;5040750;28;20054;-39
2023/04/23 03:36:45;;;;;;;;;;;;;;;18.31;100.00;98003.47;5040759;28;20589;-39
2023/04/23 03:39:10;;;;;;;;;;;;;;;18.20;100.00;98000.91;5042757;28;20426;-39
2023/04/23 03:41:36;;;;;;;;;;;;;;;17.97;100.00;98011.38;5037352;28;19920;-39
2023/04/23 03:44:01;;;;;;;;;;;;;;;18.44;100.00;97992.06;5039800;28;19920;-39
2023/04/23 03:46:26;;;;;;;;;;;;;;;18.36;100.00;97988.31;5040202;28;20015;-39
2023/04/23 03:48:51;;;;;;;;;;;;;;;18.50;100.00;97984.59;5020328;28;20363;-39
2023/04/23 03:51:17;;;;;;;;;;;;;;;17.93;100.00;98002.13;5046592;28;19925;-39
2023/04/23 03:53:42;;;;;;;;;;;;;;;18.29;100.00;97989.75;5045401;28;20408;-39
2023/04/23 03:56:08;;;;;;;;;;;;;;;18.44;100.00;97979.84;5039409;28;19917;-39
2023/04/23 03:58:33;;;;;;;;;;;;;;;18.13;100.00;97977.13;5039972;28;19916;-39
2023/04/23 04:00:59;;;;;;;;;;;;;;;17.37;100.00;97991.66;5037244;28;19920;-39
2023/04/23 04:03:24;;;;;;;;;;;;;;;17.81;100.00;97995.25;5039009;28;19936;-39
2023/04/23 04:05:49;;;;;;;;;;;;;;;18.05;100.00;97986.47;5045686;28;19925;-39
2023/04/23 04:08:15;;;;;;;;;;;;;;;18.53;100.00;97973.91;5038124;28;19959;-39
2023/04/23 04:10:40;;;;;;;;;;;;;;;18.60;100.00;97963.81;5037413;28;19917;-39
2023/04/23 04:13:05;;;;;;;;;;;;;;;18.67;100.00;97966.75;5043977;28;19974;-39
2023/04/23 04:15:31;;;;;;;;;;;;;;;18.46;100.00;97967.53;5040660;28;20000;-39
2023/04/23 04:17:57;;;;;;;;;;;;;;;17.94;100.00;97988.13;5039162;28;19920;-39
2023/04/23 04:20:22;;;;;;;;;;;;;;;18.15;100.00;97982.19;5043281;28;19982;-39
2023/04/23 04:22:47;;;;;;;;;;;;;;;18.38;100.00;97962.94;5038207;28;19927;-39
2023/04/23 04:25:13;;;;;;;;;;;;;;;17.53;100.00;97986.13;5037403;28;19917;-39
2023/04/23 04:27:40;;;;;;;;;;;;;;;17.76;100.00;97989.53;5037871;28;19931;-39
2023/04/23 04:30:05;;;;;;;;;;;;;;;18.30;100.00;97978.38;5038265;28;19936;-39
2023/04/23 04:32:31;;;;;;;;;;;;;;;18.38;100.00;97965.56;5018750;28;20320;-39
2023/04/23 04:34:56;;;;;;;;;;;;;;;18.17;100.00;97973.28;5038712;28;19956;-39
2023/04/23 04:37:22;;;;;;;;;;;;;;;17.83;100.00;97975.13;5039364;28;19917;-39
2023/04/23 04:39:47;;;;;;;;;;;;;;;18.12;100.00;97966.81;5036766;28;19920;-39
2023/04/23 04:42:12;;;;;;;;;;;;;;;17.73;100.00;97979.38;5037353;28;20398;-39
2023/04/23 04:44:37;;;;;;;;;;;;;;;17.82;100.00;97978.69;5036555;28;19928;-39
2023/04/23 04:47:03;;;;;;;;;;;;;;;17.21;100.00;97991.16;5038072;28;19920;-39
2023/04/23 04:49:28;;;;;;;;;;;;;;;17.60;100.00;97994.28;5038926;28;19995;-39
2023/04/23 04:51:53;;;;;;;;;;;;;;;17.81;100.00;97978.78;5019883;28;20009;-39
2023/04/23 04:54:19;;;;;;;;;;;;;;;17.56;100.00;97983.25;5037297;28;19967;-39
2023/04/23 04:56:44;;;;;;;;;;;;;;;17.04;100.00;97989.84;5035198;28;19924;-39
2023/04/23 04:59:10;;;;;;;;;;;;;;;17.61;100.00;97975.09;5040903;28;20006;-39
2023/04/23 05:01:36;;;;;;;;;;;;;;;17.49;100.00;97972.53;5037117;28;20357;-39
2023/04/23 05:04:01;;;;;;;;;;;;;;;17.54;100.00;97959.97;5038206;28;20391;-39
2023/04/23 05:06:27;;;;;;;;;;;;;;;17.01;100.00;97982.25;5039185;28;19921;-39
2023/04/23 05:08:52;;;;;;;;;;;;;;;17.42;100.00;97971.31;5036706;28;19921;-39
2023/04/23 05:11:18;;;;;;;;;;;;;;;17.10;100.00;97979.78;5037610;28;20328;-39
2023/04/23 05:13:44;;;;;;;;;;;;;;;17.32;100.00;97976.41;5036760;28;20284;-39
2023/04/23 05:16:10;;;;;;;;;;;;;;;15.89;100.00;98004.94;5036995;28;20169;-39
2023/04/23 05:18:36;;;;;;;;;;;;;;;15.81;100.00;98012.44;5039562;28;19978;-39
2023/04/23 05:21:01;;;;;;;;;;;;;;;15.21;100.00;98026.00;5036279;28;20366;-39
2023/04/23 05:23:26;;;;;;;;;;;;;;;16.13;100.00;98006.78;5036850;28;19917;-39
2023/04/23 05:25:54;;;;;;;;;;;;;;;16.21;100.00;98004.44;5037267;28;19916;-39
2023/04/23 05:28:20;;;;;;;;;;;;;;;15.87;100.00;98005.97;5037660;28;20346;-39
2023/04/23 05:30:45;;;;;;;;;;;;;;;15.11;100.00;98025.78;5042568;28;19920;-39
2023/04/23 05:33:11;;;;;;;;;;;;;;;14.97;100.00;98016.34;5047162;28;20376;-40
2023/04/23 05:35:36;;;;;;;;;;;;;;;15.36;100.00;98014.63;5037611;28;20411;-39
2023/04/23 05:38:02;;;;;;;;;;;;;;;15.66;100.00;98003.09;5026189;28;19974;-39
2023/04/23 05:40:27;;;;;;;;;;;;;;;15.92;100.00;97997.88;5035121;28;20023;-39
2023/04/23 05:42:52;;;;;;;;;;;;;;;15.95;100.00;97992.50;5037841;28;19920;-39
2023/04/23 05:45:17;;;;;;;;;;;;;;;15.31;100.00;97995.13;5044468;28;20385;-39
2023/04/23 05:47:43;;;;;;;;;;;;;;;14.94;100.00;98016.53;5042478;28;20372;-39
2023/04/23 05:50:10;;;;;;;;;;;;;;;15.33;100.00;98006.22;5036872;28;20008;-39
2023/04/23 05:52:36;;;;;;;;;;;;;;;14.99;100.00;98027.44;5039349;28;20190;-39
2023/04/23 05:55:02;;;;;;;;;;;;;;;15.19;100.00;98020.09;5044287;28;19958;-39
2023/04/23 05:57:27;;;;;;;;;;;;;;;15.31;100.00;98005.50;5039344;28;19924;-39
2023/04/23 05:59:52;;;;;;;;;;;;;;;14.74;100.00;98019.59;5029153;28;19923;-39
2023/04/23 06:02:17;;;;;;;;;;;;;;;15.77;100.00;98008.41;5042354;28;19930;-39
2023/04/23 06:04:42;;;;;;;;;;;;;;;15.65;100.00;98001.44;5042875;28;20373;-40
2023/04/23 06:07:08;;;;;;;;;;;;;;;15.73;100.00;97995.75;5048276;28;19947;-39
2023/04/23 06:09:33;;;;;;;;;;;;;;;14.86;100.00;98003.25;5045347;28;20039;-39
2023/04/23 06:11:58;;;;;;;;;;;;;;;15.82;100.00;98003.72;5043574;28;19946;-39
2023/04/23 06:14:23;;;;;;;;;;;;;;;16.38;100.00;97990.25;5043829;28;20053;-39
2023/04/23 06:16:49;;;;;;;;;;;;;;;16.93;100.00;97967.22;5041107;28;20637;-39
2023/04/23 06:19:14;;;;;;;;;;;;;;;16.38;100.00;97979.06;5040251;28;19947;-39
2023/04/23 06:21:39;;;;;;;;;;;;;;;16.50;100.00;97975.56;5040961;28;20007;-39
2023/04/23 06:24:06;;;;;;;;;;;;;;;16.39;100.00;97965.09;5040481;28;19956;-40
2023/04/23 06:26:31;;;;;;;;;;;;;;;16.83;100.00;97963.63;5044814;28;20012;-40
2023/04/23 06:28:56;;;;;;;;;;;;;;;16.76;100.00;97958.03;5049197;28;20011;-39
2023/04/23 06:31:21;;;;;;;;;;;;;;;17.04;100.00;97953.44;5044464;28;20024;-39
2023/04/23 06:33:47;;;;;;;;;;;;;;;16.27;100.00;97977.22;5035363;28;19944;-39
2023/04/23 06:36:13;;;;;;;;;;;;;;;17.11;100.00;97971.06;5036146;28;19920;-39
2023/04/23 06:38:38;;;;;;;;;;;;;;;18.10;100.00;97934.84;5035361;28;19921;-39
2023/04/23 06:41:04;;;;;;;;;;;;;;;17.30;100.00;97948.84;5017234;28;19971;-39
2023/04/23 06:43:29;;;;;;;;;;;;;;;17.51;100.00;97954.97;5039573;28;19916;-39
2023/04/23 06:45:55;;;;;;;;;;;;;;;17.63;100.00;97950.63;5035681;28;20387;-39
2023/04/23 06:48:21;;;;;;;;;;;;;;;18.33;100.00;97946.81;5016741;28;19921;-39
2023/04/23 06:50:47;;;;;;;;;;;;;;;17.56;100.00;97958.09;5041056;28;19994;-39
2023/04/23 06:53:12;;;;;;;;;;;;;;;18.54;100.00;97939.06;5036890;28;19960;-39
2023/04/23 06:55:37;;;;;;;;;;;;;;;18.86;100.00;97932.16;5043246;28;19960;-39
2023/04/23 06:58:03;;;;;;;;;;;;;;;18.74;100.00;97934.81;5042253;28;19987;-39
2023/04/23 07:00:28;;;;;;;;;;;;;;;18.97;100.00;97935.53;5041069;28;19924;-39
2023/04/23 07:02:53;;;;;;;;;;;;;;;18.52;100.00;97929.69;5040479;28;19921;-39
2023/04/23 07:05:18;;;;;;;;;;;;;;;19.59;100.00;97923.34;5022075;28;19932;-39
2023/04/23 07:07:44;;;;;;;;;;;;;;;18.03;100.00;97960.53;5047898;28;19921;-39
2023/04/23 07:10:10;;;;;;;;;;;;;;;18.01;100.00;97945.97;5039754;28;20404;-39
2023/04/23 07:12:36;;;;;;;;;;;;;;;19.21;100.00;97924.81;5040897;28;19928;-39
2023/04/23 07:15:01;;;;;;;;;;;;;;;19.05;100.00;97916.63;5035756;28;20685;-39
2023/04/23 07:17:27;;;;;;;;;;;;;;;19.52;100.00;97918.75;5046518;28;19944;-39
2023/04/23 07:19:52;;;;;;;;;;;;;;;20.22;100.00;97891.72;5040232;28;20293;-39
2023/04/23 07:22:17;;;;;;;;;;;;;;;20.07;100.00;97908.78;5042381;28;19954;-39
2023/04/23 07:24:42;;;;;;;;;;;;;;;19.60;100.00;97909.31;5022044;28;20021;-39
2023/04/23 07:27:08;;;;;;;;;;;;;;;19.02;100.00;97914.28;5041254;28;19917;-39
2023/04/23 07:29:33;;;;;;;;;;;;;;;19.10;100.00;97942.34;5040392;28;19921;-39
2023/04/23 07:31:58;;;;;;;;;;;;;;;19.39;100.00;97927.66;5044059;28;19929;-39
2023/04/23 07:34:23;;;;;;;;;;;;;;;20.03;100.00;97902.97;5038789;28;19945;-39
2023/04/23 07:36:49;;;;;;;;;;;;;;;19.93;100.00;97912.56;5038329;28;19924;-39
2023/04/23 07:39:14;;;;;;;;;;;;;;;20.66;100.00;97889.53;5040412;28;20386;-39
2023/04/23 07:41:39;;;;;;;;;;;;;;;19.88;100.00;97898.28;5038705;28;19929;-39
2023/04/23 07:44:05;;;;;;;;;;;;;;;20.73;100.00;97892.38;5023041;28;19973;-39
2023/04/23 07:46:30;;;;;;;;;;;;;;;20.85;100.00;97904.34;5043050;28;20023;-39
2023/04/23 07:48:55;;;;;;;;;;;;;;;20.75;100.00;97898.31;5043651;28;20300;-39
2023/04/23 07:51:21;;;;;;;;;;;;;;;20.57;100.00;97899.97;5037900;28;20053;-39
2023/04/23 07:53:49;;;;;;;;;;;;;;;21.16;100.00;97898.88;5040636;28;19966;-39
2023/04/23 07:56:15;;;;;;;;;;;;;;;21.12;100.00;97889.69;5037516;28;19967;-39
2023/04/23 07:58:40;;;;;;;;;;;;;;;20.39;100.00;97924.19;5037525;28;20297;-39
2023/04/23 08:01:05;;;;;;;;;;;;;;;20.26;100.00;97929.69;5037612;28;19942;-39
2023/04/23 08:03:30;;;;;;;;;;;;;;;20.02;100.00;97932.66;5038688;28;19989;-39
2023/04/23 08:05:56;;;;;;;;;;;;;;;20.13;100.00;97930.91;5037746;28;19923;-39
2023/04/23 08:08:21;;;;;;;;;;;;;;;20.51;100.00;97926.69;5042423;28;19924;-39
2023/04/23 08:10:46;;;;;;;;;;;;;;;19.49;100.00;97945.97;5036980;28;20280;-39
2023/04/23 08:13:11;;;;;;;;;;;;;;;20.33;100.00;97945.66;5037609;28;20724;-39
2023/04/23 08:15:37;;;;;;;;;;;;;;;21.36;100.00;97901.44;5039592;28;19981;-39
2023/04/23 08:18:03;;;;;;;;;;;;;;;22.00;100.00;97857.81;5035809;28;19921;-39
2023/04/23 08:20:28;;;;;;;;;;;;;;;20.74;100.00;97917.59;5039476;28;19928;-39
2023/04/23 08:22:54;;;;;;;;;;;;;;;21.33;100.00;97886.03;5038134;28;19924;-39
2023/04/23 08:25:19;;;;;;;;;;;;;;;21.88;100.00;97859.84;5038668;28;19920;-39
2023/04/23 08:27:45;;;;;;;;;;;;;;;20.14;100.00;97903.81;5044459;28;20312;-39
2023/04/23 08:30:10;;;;;;;;;;;;;;;21.04;100.00;97897.41;5019855;28;19921;-39
2023/04/23 08:32:37;;;;;;;;;;;;;;;21.63;100.00;97862.19;5044663;28;20263;-40
2023/04/23 08:35:03;;;;;;;;;;;;;;;21.69;100.00;97852.91;5041634;28;19966;-39
2023/04/23 08:37:28;;;;;;;;;;;;;;;21.82;100.00;97850.75;5043147;28;20263;-39
2023/04/23 08:39:53;;;;;;;;;;;;;;;21.34;100.00;97877.19;5042193;28;20348;-39
2023/04/23 08:42:37;;;;;;;;;;;;;;;21.89;100.00;97854.41;5043294;28;19920;-39
2023/04/23 08:45:03;;;;;;;;;;;;;;;23.40;100.00;97810.53;5043889;28;19935;-39
2023/04/23 08:47:28;;;;;;;;;;;;;;;23.59;100.00;97810.25;5044235;28;19921;-39
2023/04/23 08:49:54;;;;;;;;;;;;;;;22.94;100.00;97826.56;5040327;28;20181;-39
2023/04/23 08:52:23;;;;;;;;;;;;;;;22.57;100.00;97844.38;5044030;28;20357;-39
2023/04/23 08:54:49;;;;;;;;;;;;;;;22.07;100.00;97859.66;5046856;28;19924;-39
2023/04/23 08:57:15;;;;;;;;;;;;;;;22.75;100.00;97853.84;5022196;28;19974;-39
2023/04/23 08:59:40;;;;;;;;;;;;;;;21.76;100.00;97861.00;5045026;28;19920;-40
2023/04/23 09:02:08;;;;;;;;;;;;;;;23.26;100.00;97814.56;5050497;28;20373;-44
2023/04/23 09:04:34;;;;;;;;;;;;;;;23.21;100.00;97811.59;5047008;28;19966;-39
2023/04/23 09:06:59;;;;;;;;;;;;;;;21.52;100.00;97838.81;5044180;28;19917;-39
2023/04/23 09:09:25;;;;;;;;;;;;;;;22.94;100.00;97823.94;5020733;28;20298;-39
2023/04/23 09:11:50;;;;;;;;;;;;;;;23.29;100.00;97824.78;5021352;28;20074;-39
2023/04/23 09:14:16;;;;;;;;;;;;;;;21.31;100.00;97873.91;5038758;28;19921;-39
2023/04/23 09:16:41;;;;;;;;;;;;;;;24.03;100.00;97800.47;5017338;28;19927;-39
2023/04/23 09:19:08;;;;;;;;;;;;;;;22.60;100.00;97828.31;5021714;28;19925;-39
2023/04/23 09:21:34;;;;;;;;;;;;;;;22.65;100.00;97833.91;5041756;28;20412;-39
2023/04/23 09:23:59;;;;;;;;;;;;;;;22.65;100.00;97819.03;5019595;28;19921;-39
2023/04/23 09:26:25;;;;;;;;;;;;;;;23.67;100.00;97809.44;5019332;28;19925;-39
2023/04/23 09:28:51;;;;;;;;;;;;;;;24.77;99.62;97799.44;5022540;28;19920;-39
2023/04/23 09:31:20;;;;;;;;;;;;;;;25.04;97.42;97789.47;5039610;28;20364;-39
2023/04/23 09:33:49;;;;;;;;;;;;;;;25.10;96.00;97782.72;5043207;28;19928;-39
2023/04/23 09:36:15;;;;;;;;;;;;;;;23.66;96.60;97799.09;5039144;28;19925;-39
2023/04/23 09:38:40;;;;;;;;;;;;;;;23.67;98.88;97816.50;5042141;28;20594;-39
2023/04/23 09:41:25;;;;;;;;;;;;;;;24.20;97.12;97802.13;5041947;28;19924;-46
2023/04/23 09:43:54;;;;;;;;;;;;;;;23.90;95.23;97790.44;5039768;28;20327;-39
2023/04/23 09:46:39;;;;;;;;;;;;;;;24.40;95.50;97774.50;5039048;28;19921;-39
2023/04/23 09:49:07;;;;;;;;;;;;;;;23.49;97.79;97803.47;5036111;28;20377;-39
2023/04/23 09:51:36;;;;;;;;;;;;;;;23.67;98.96;97806.00;5042692;28;20676;-39
2023/04/23 09:54:04;;;;;;;;;;;;;;;23.29;98.50;97802.94;5037318;28;19921;-39
2023/04/23 09:56:31;;;;;;;;;;;;;;;23.32;99.66;97813.94;5037969;28;19920;-39
2023/04/23 09:58:56;;;;;;;;;;;;;;;24.09;97.00;97790.13;5044908;28;19917;-39
2023/04/23 10:01:28;;;;;;;;;;;;;;;23.74;97.87;97792.09;5040724;28;19927;-39
2023/04/23 10:03:55;;;;;;;;;;;;;;;22.21;100.00;97833.91;5039410;28;19933;-39
2023/04/23 10:06:27;;;;;;;;;;;;;;;23.04;100.00;97820.41;5045239;28;19920;-39
2023/04/23 10:08:52;;;;;;;;;;;;;;;24.01;96.57;97785.66;5038601;28;19920;-39
2023/04/23 10:11:18;;;;;;;;;;;;;;;22.52;94.60;97787.13;5017354;28;19990;-39
2023/04/23 10:13:43;;;;;;;;;;;;;;;23.83;93.12;97760.53;5037079;28;20160;-39
2023/04/23 10:16:08;;;;;;;;;;;;;;;23.08;94.35;97784.97;5021034;28;19917;-39
2023/04/23 10:18:34;;;;;;;;;;;;;;;24.46;93.54;97772.19;5017249;28;19916;-39
2023/04/23 10:21:00;;;;;;;;;;;;;;;23.17;92.89;97791.88;5016615;28;19958;-39
2023/04/23 10:23:25;;;;;;;;;;;;;;;24.01;94.55;97787.50;5038187;28;19916;-39
2023/04/23 10:25:52;;;;;;;;;;;;;;;21.77;100.00;97854.81;5035195;28;20388;-40
2023/04/23 10:28:17;;;;;;;;;;;;;;;23.77;97.10;97786.50;5017940;28;20481;-39
2023/04/23 10:30:43;;;;;;;;;;;;;;;23.73;95.13;97779.06;5059905;28;19927;-39
2023/04/23 10:33:08;;;;;;;;;;;;;;;23.86;93.44;97778.63;5038772;28;19971;-39
2023/04/23 10:35:33;;;;;;;;;;;;;;;23.52;96.48;97800.56;5036769;28;19920;-39
2023/04/23 10:37:59;;;;;;;;;;;;;;;22.88;94.44;97795.69;5016814;28;19921;-39
2023/04/23 10:40:31;;;;;;;;;;;;;;;20.87;98.53;97834.38;5016100;28;19917;-39
2023/04/23 10:42:56;;;;;;;;;;;;;;;23.43;95.68;97783.13;5035234;28;19975;-39
2023/04/23 10:45:22;;;;;;;;;;;;;;;22.38;98.64;97808.66;5036991;28;19925;-39
2023/04/23 10:47:47;;;;;;;;;;;;;;;22.17;100.00;97843.88;5036112;28;19952;-39
2023/04/23 10:50:19;;;;;;;;;;;;;;;21.04;100.00;97839.84;5016382;28;19955;-39
2023/04/23 10:52:48;;;;;;;;;;;;;;;22.79;100.00;97812.38;5039197;28;20273;-39
2023/04/23 10:55:17;;;;;;;;;;;;;;;23.87;98.28;97780.25;5035919;28;19921;-39
2023/04/23 10:57:56;;;;;;;;;;;;;;;23.37;93.61;97750.41;5034006;28;19921;-39
2023/04/23 11:00:21;;;;;;;;;;;;;;;23.98;96.26;97753.63;5035246;28;19917;-39
2023/04/23 11:02:46;;;;;;;;;;;;;;;24.37;94.00;97745.06;5037482;28;20756;-39
2023/04/23 11:05:11;;;;;;;;;;;;;;;23.03;93.99;97755.72;5033315;28;20303;-39
2023/04/23 11:07:38;;;;;;;;;;;;;;;23.21;94.87;97753.81;5034528;28;20011;-39
2023/04/23 11:10:13;;;;;;;;;;;;;;;23.84;92.78;97739.34;5015467;28;19921;-40
2023/04/23 11:12:38;;;;;;;;;;;;;;;24.51;92.18;97725.97;5035250;28;19921;-39
2023/04/23 11:15:11;;;;;;;;;;;;;;;25.03;89.23;97707.00;5035028;28;20396;-39
2023/04/23 11:17:36;;;;;;;;;;;;;;;25.28;84.20;97679.72;5038570;28;19923;-40
2023/04/23 11:20:09;;;;;;;;;;;;;;;24.43;92.00;97733.88;5040079;28;19921;-39
2023/04/23 11:22:35;;;;;;;;;;;;;;;24.86;88.25;97702.81;5036875;28;20324;-39
2023/04/23 11:25:00;;;;;;;;;;;;;;;25.03;90.59;97728.06;5036225;28;19920;-39
2023/04/23 11:27:25;;;;;;;;;;;;;;;25.56;87.66;97703.75;5035997;28;19917;-39
2023/04/23 11:29:51;;;;;;;;;;;;;;;25.46;88.00;97699.53;5034251;28;20292;-39
2023/04/23 11:32:16;;;;;;;;;;;;;;;24.79;87.99;97712.38;5019610;28;20513;-40
2023/04/23 11:34:42;;;;;;;;;;;;;;;23.46;91.52;97736.31;5040630;28;19975;-40
2023/04/23 11:37:11;;;;;;;;;;;;;;;22.71;91.69;97730.94;5037176;28;19917;-39
2023/04/23 11:39:37;;;;;;;;;;;;;;;23.70;92.74;97732.91;5018229;28;19927;-39
2023/04/23 11:42:03;;;;;;;;;;;;;;;21.34;94.76;97767.19;5037593;28;19917;-39
2023/04/23 11:44:29;;;;;;;;;;;;;;;21.66;89.14;97704.66;5043016;28;20020;-39
2023/04/23 11:46:55;;;;;;;;;;;;;;;23.32;91.22;97703.59;5041973;28;19932;-40
2023/04/23 11:49:20;;;;;;;;;;;;;;;24.13;87.22;97669.59;5023949;28;19920;-40
2023/04/23 11:51:46;;;;;;;;;;;;;;;24.57;86.30;97656.84;5039392;28;19921;-39
2023/04/23 11:54:12;;;;;;;;;;;;;;;25.14;86.59;97657.56;5038676;28;19948;-39
2023/04/23 11:56:38;;;;;;;;;;;;;;;25.79;87.08;97651.78;5039227;28;19959;-39
2023/04/23 11:59:04;;;;;;;;;;;;;;;26.90;82.39;97628.16;5038699;28;20011;-39
2023/04/23 12:01:42;;;;;;;;;;;;;;;26.06;86.96;97657.50;5023142;28;19931;-39
2023/04/23 12:04:08;;;;;;;;;;;;;;;27.05;79.88;97610.44;5040263;28;19916;-39
2023/04/23 12:06:33;;;;;;;;;;;;;;;26.35;76.53;97597.81;5037798;28;19925;-39
2023/04/23 12:08:58;;;;;;;;;;;;;;;27.08;80.71;97630.38;5040411;28;20562;-39
2023/04/23 12:11:24;;;;;;;;;;;;;;;25.80;79.50;97624.44;5038592;28;20416;-39
2023/04/23 12:13:50;;;;;;;;;;;;;;;24.80;81.91;97643.75;5038875;28;20359;-39
2023/04/23 12:16:15;;;;;;;;;;;;;;;27.01;81.70;97616.28;5038560;28;19917;-39
2023/04/23 12:18:42;;;;;;;;;;;;;;;27.64;77.22;97592.66;5039422;28;20281;-39
2023/04/23 12:21:09;;;;;;;;;;;;;;;25.31;76.45;97611.66;5037139;28;19925;-39
2023/04/23 12:23:37;;;;;;;;;;;;;;;26.24;83.19;97644.78;5038444;28;19920;-39
2023/04/23 12:26:03;;;;;;;;;;;;;;;26.36;76.89;97594.97;5038608;28;20039;-39
2023/04/23 12:28:28;;;;;;;;;;;;;;;26.46;80.30;97615.84;5038697;28;19996;-39
2023/04/23 12:30:57;;;;;;;;;;;;;;;27.09;78.50;97601.09;5044371;28;19960;-39